createdAt,value
2022-09-09T00:01:56.199Z,1.40
2022-09-09T00:04:29.995Z,1.55
2022-09-09T00:07:06.811Z,1.80
2022-09-09T00:09:46.273Z,1.50
2022-09-09T00:12:19.236Z,1.00
2022-09-09T00:14:53.577Z,1.30
2022-09-09T00:17:35.598Z,1.98
2022-09-09T00:20:14.046Z,1.40
2022-09-09T00:22:48.448Z,1.55
2022-09-09T00:25:24.159Z,1.38
2022-09-09T00:27:53.441Z,1.30
2022-09-09T00:30:25.121Z,1.42
2022-09-09T00:32:59.172Z,1.20
2022-09-09T00:35:32.152Z,1.43
2022-09-09T00:38:11.493Z,1.27
2022-09-09T00:40:50.977Z,1.13
2022-09-09T00:43:32.501Z,1.73
2022-09-09T00:46:42.144Z,1.38
2022-09-09T00:49:24.040Z,1.45
2022-09-09T00:52:06.302Z,1.42
2022-09-09T00:54:46.746Z,1.55
2022-09-09T00:57:29.128Z,1.60
2022-09-09T01:00:21.897Z,1.73
2022-09-09T01:03:13.260Z,1.45
2022-09-09T01:05:51.831Z,1.90
2022-09-09T01:08:40.409Z,1.95
2022-09-09T01:11:17.936Z,2.30
2022-09-09T01:13:49.134Z,1.95
2022-09-09T01:16:18.917Z,1.60
2022-09-09T01:18:51.658Z,1.65
2022-09-09T01:21:32.038Z,2.03
2022-09-09T01:24:22.487Z,1.77
2022-09-09T01:27:09.856Z,1.38
2022-09-09T01:29:38.692Z,1.30
2022-09-09T01:32:43.250Z,1.35
2022-09-09T01:35:21.420Z,1.23
2022-09-09T01:37:50.086Z,1.33
2022-09-09T01:40:19.164Z,1.50
2022-09-09T01:42:51.071Z,1.40
2022-09-09T01:45:19.664Z,1.38
2022-09-09T01:47:49.056Z,1.05
2022-09-09T01:50:35.190Z,1.38
2022-09-09T01:53:04.892Z,0.98
2022-09-09T01:55:41.440Z,1.33
2022-09-09T01:58:31.377Z,1.27
2022-09-09T02:01:12.296Z,0.65
2022-09-09T02:03:42.876Z,1.35
2022-09-09T02:06:29.609Z,1.00
2022-09-09T02:09:09.481Z,1.48
2022-09-09T02:11:37.968Z,1.30
2022-09-09T02:14:25.720Z,1.38
2022-09-09T02:17:00.172Z,1.17
2022-09-09T02:19:43.160Z,1.05
2022-09-09T02:22:26.199Z,1.20
2022-09-09T02:24:59.417Z,1.15
2022-09-09T02:27:30.474Z,1.60
2022-09-09T02:30:03.049Z,2.05
2022-09-09T02:32:44.507Z,1.67
2022-09-09T02:35:19.481Z,1.40
2022-09-09T02:37:48.693Z,1.35
2022-09-09T02:40:18.570Z,1.58
2022-09-09T02:42:51.684Z,1.40
2022-09-09T02:45:29.390Z,1.15
2022-09-09T02:48:11.564Z,1.33
2022-09-09T02:50:49.261Z,1.27
2022-09-09T02:53:22.948Z,1.55
2022-09-09T02:55:59.464Z,1.20
2022-09-09T02:58:28.236Z,1.00
2022-09-09T03:01:03.908Z,1.13
2022-09-09T03:03:33.633Z,1.02
2022-09-09T03:06:06.670Z,0.90
2022-09-09T03:08:35.207Z,1.10
2022-09-09T03:11:03.589Z,0.60
2022-09-09T03:13:35.334Z,1.05
2022-09-09T03:16:06.649Z,1.05
2022-09-09T03:18:40.536Z,0.88
2022-09-09T03:21:09.340Z,0.90
2022-09-09T03:23:39.219Z,1.00
2022-09-09T03:26:08.252Z,0.75
2022-09-09T03:28:42.676Z,1.50
2022-09-09T03:31:13.026Z,1.10
2022-09-09T03:33:43.421Z,1.40
2022-09-09T03:36:15.019Z,1.45
2022-09-09T03:38:43.304Z,1.58
2022-09-09T03:41:13.747Z,1.27
2022-09-09T03:43:42.843Z,1.65
2022-09-09T03:46:12.738Z,1.80
2022-09-09T03:48:41.341Z,1.17
2022-09-09T03:51:09.546Z,1.02
2022-09-09T03:53:39.092Z,1.35
2022-09-09T03:56:09.185Z,1.30
2022-09-09T03:58:39.004Z,1.35
2022-09-09T04:01:14.366Z,1.00
2022-09-09T04:03:45.611Z,1.40
2022-09-09T04:06:16.032Z,1.45
2022-09-09T04:08:49.489Z,1.75
2022-09-09T04:11:17.908Z,1.40
2022-09-09T04:13:48.015Z,1.55
2022-09-09T04:16:17.810Z,1.40
2022-09-09T04:18:46.650Z,1.50
2022-09-09T04:21:17.101Z,1.27
2022-09-09T04:23:45.299Z,1.48
2022-09-09T04:26:16.325Z,1.33
2022-09-09T04:28:46.675Z,0.93
2022-09-09T04:31:24.446Z,1.90
2022-09-09T04:33:56.020Z,1.20
2022-09-09T04:36:24.795Z,1.42
2022-09-09T04:38:57.002Z,1.45
2022-09-09T04:41:25.595Z,0.90
2022-09-09T04:43:57.962Z,1.10
2022-09-09T04:46:27.752Z,0.95
2022-09-09T04:48:56.000Z,1.17
2022-09-09T04:51:29.214Z,1.25
2022-09-09T04:53:57.855Z,1.02
2022-09-09T04:56:27.854Z,1.38
2022-09-09T04:58:59.415Z,1.30
2022-09-09T05:01:42.104Z,1.27
2022-09-09T05:04:10.599Z,1.23
2022-09-09T05:06:38.903Z,1.00
2022-09-09T05:09:07.560Z,1.08
2022-09-09T05:11:37.690Z,0.88
2022-09-09T05:14:25.047Z,1.15
2022-09-09T05:16:55.131Z,1.13
2022-09-09T05:19:24.889Z,1.27
2022-09-09T05:21:54.701Z,1.23
2022-09-09T05:27:02.601Z,0.70
2022-09-09T05:29:31.154Z,0.70
2022-09-09T05:32:01.090Z,0.57
2022-09-09T05:34:30.154Z,1.00
2022-09-09T05:36:59.464Z,0.90
2022-09-09T05:39:28.461Z,1.48
2022-09-09T05:41:56.663Z,0.82
2022-09-09T05:44:28.563Z,0.68
2022-09-09T05:46:58.507Z,0.77
2022-09-09T05:49:28.270Z,0.70
2022-09-09T05:51:56.924Z,0.75
2022-09-09T05:54:26.235Z,0.85
2022-09-09T05:56:56.620Z,1.00
2022-09-09T05:59:25.505Z,1.00
2022-09-09T06:01:56.647Z,0.65
2022-09-09T06:04:35.160Z,0.65
2022-09-09T06:07:04.184Z,0.40
2022-09-09T06:09:32.671Z,1.25
2022-09-09T06:12:01.298Z,0.93
2022-09-09T06:14:29.723Z,0.70
2022-09-09T06:17:00.984Z,0.80
2022-09-09T06:19:34.433Z,1.00
2022-09-09T06:22:03.414Z,1.10
2022-09-09T06:24:35.243Z,1.13
2022-09-09T06:27:06.313Z,0.98
2022-09-09T06:29:37.099Z,0.88
2022-09-09T06:32:06.021Z,0.73
2022-09-09T06:34:36.511Z,0.63
2022-09-09T06:37:05.729Z,0.73
2022-09-09T06:39:49.283Z,0.70
2022-09-09T06:42:18.012Z,1.17
2022-09-09T06:44:53.243Z,0.85
2022-09-09T06:47:34.600Z,1.15
2022-09-09T06:50:06.339Z,1.50
2022-09-09T06:52:36.363Z,1.52
2022-09-09T06:55:06.320Z,1.00
2022-09-09T06:57:37.933Z,1.00
2022-09-09T07:00:20.957Z,1.10
2022-09-09T07:02:51.959Z,0.73
2022-09-09T07:05:22.220Z,1.05
2022-09-09T07:07:50.483Z,0.70
2022-09-09T07:10:21.247Z,0.98
2022-09-09T07:12:54.055Z,0.90
2022-09-09T07:17:53.096Z,0.73
2022-09-09T07:20:23.013Z,1.02
2022-09-09T07:22:52.052Z,0.93
2022-09-09T07:25:21.882Z,0.93
2022-09-09T07:27:50.564Z,0.93
2022-09-09T07:30:24.271Z,1.05
2022-09-09T07:32:58.102Z,1.05
2022-09-09T07:35:28.808Z,1.05
2022-09-09T07:37:57.088Z,0.77
2022-09-09T07:40:25.724Z,1.00
2022-09-09T07:42:55.150Z,0.90
2022-09-09T07:45:23.858Z,0.68
2022-09-09T07:47:53.682Z,1.20
2022-09-09T07:50:22.398Z,0.82
2022-09-09T07:52:54.409Z,0.93
2022-09-09T07:55:25.101Z,1.30
2022-09-09T07:57:55.008Z,0.95
2022-09-09T08:00:24.625Z,0.82
2022-09-09T08:02:57.075Z,1.05
2022-09-09T08:05:26.023Z,0.85
2022-09-09T08:07:56.001Z,1.25
2022-09-09T08:10:25.101Z,1.30
2022-09-09T08:13:16.845Z,0.60
2022-09-09T08:15:45.500Z,1.13
2022-09-09T08:18:14.972Z,1.02
2022-09-09T08:20:43.375Z,1.00
2022-09-09T08:23:13.259Z,0.98
2022-09-09T08:25:41.761Z,0.77
2022-09-09T08:28:11.085Z,0.63
2022-09-09T08:30:39.925Z,1.17
2022-09-09T08:33:09.092Z,1.10
2022-09-09T08:35:37.391Z,1.10
2022-09-09T08:38:10.690Z,1.35
2022-09-09T08:40:45.995Z,0.70
2022-09-09T08:43:18.601Z,0.70
2022-09-09T08:46:00.997Z,0.93
2022-09-09T08:48:53.869Z,1.08
2022-09-09T08:51:22.624Z,1.10
2022-09-09T08:53:57.655Z,1.25
2022-09-09T08:56:33.325Z,0.95
2022-09-09T08:59:05.000Z,0.60
2022-09-09T09:02:02.590Z,0.85
2022-09-09T09:05:01.114Z,1.17
2022-09-09T09:07:46.838Z,0.98
2022-09-09T09:10:42.068Z,1.15
2022-09-09T09:13:21.988Z,0.85
2022-09-09T09:15:59.954Z,0.80
2022-09-09T09:18:29.835Z,0.80
2022-09-09T09:21:06.242Z,0.52
2022-09-09T09:23:44.524Z,0.70
2022-09-09T09:26:13.453Z,0.57
2022-09-09T09:28:43.951Z,0.80
2022-09-09T09:31:17.326Z,1.23
2022-09-09T09:33:53.732Z,1.77
2022-09-09T09:36:35.042Z,1.13
2022-09-09T09:41:56.291Z,2.05
2022-09-09T09:44:29.260Z,1.75
2022-09-09T09:47:10.797Z,1.35
2022-09-09T09:49:40.585Z,1.45
2022-09-09T09:52:19.552Z,1.25
2022-09-09T09:54:48.048Z,1.40
2022-09-09T09:57:18.662Z,1.08
2022-09-09T09:59:50.323Z,0.95
2022-09-09T10:02:27.713Z,1.10
2022-09-09T10:05:06.431Z,0.90
2022-09-09T10:07:38.323Z,0.80
2022-09-09T10:10:15.349Z,0.90
2022-09-09T10:13:00.322Z,1.23
2022-09-09T10:15:46.637Z,0.85
2022-09-09T10:18:40.408Z,2.10
2022-09-09T10:21:44.376Z,1.50
2022-09-09T10:25:07.075Z,1.70
2022-09-09T10:27:45.245Z,1.15
2022-09-09T10:30:20.148Z,0.95
2022-09-09T10:32:56.751Z,1.15
2022-09-09T10:35:34.358Z,1.33
2022-09-09T10:38:19.697Z,0.90
2022-09-09T10:41:20.237Z,1.23
2022-09-09T10:44:36.555Z,1.08
2022-09-09T10:50:24.335Z,0.70
2022-09-09T10:53:04.395Z,0.90
2022-09-09T10:55:43.116Z,0.82
2022-09-09T10:58:20.264Z,1.23
2022-09-09T11:00:57.888Z,1.08
2022-09-09T11:03:32.044Z,0.95
2022-09-09T11:06:06.967Z,0.60
2022-09-09T11:08:40.065Z,1.02
2022-09-09T11:11:17.761Z,0.82
2022-09-09T11:13:52.542Z,0.73
2022-09-09T11:16:30.929Z,0.90
2022-09-09T11:19:06.931Z,0.80
2022-09-09T11:21:43.035Z,1.20
2022-09-09T11:24:18.163Z,0.73
2022-09-09T11:26:53.505Z,0.90
2022-09-09T11:30:27.177Z,1.08
2022-09-09T11:33:50.242Z,0.90
2022-09-09T11:36:57.628Z,0.60
2022-09-09T11:39:55.777Z,0.82
2022-09-09T11:42:26.865Z,0.70
2022-09-09T11:44:55.737Z,0.88
2022-09-09T11:47:30.869Z,1.17
2022-09-09T11:50:13.246Z,0.73
2022-09-09T11:52:46.956Z,0.80
2022-09-09T11:55:30.563Z,0.80
2022-09-09T11:58:01.278Z,1.00
2022-09-09T12:00:39.077Z,0.80
2022-09-09T12:03:09.976Z,1.40
2022-09-09T12:05:41.659Z,1.15
2022-09-09T12:08:13.753Z,1.00
2022-09-09T12:10:42.771Z,0.98
2022-09-09T12:13:20.183Z,1.00
2022-09-09T12:15:54.602Z,1.38
2022-09-09T12:18:26.702Z,1.00
2022-09-09T12:21:04.602Z,0.70
2022-09-09T12:23:48.073Z,0.60
2022-09-09T12:26:32.432Z,0.60
2022-09-09T12:29:14.615Z,0.70
2022-09-09T12:31:50.779Z,0.32
2022-09-09T12:34:33.540Z,0.70
2022-09-09T12:37:08.285Z,0.80
2022-09-09T12:42:20.874Z,0.90
2022-09-09T12:44:58.403Z,0.77
2022-09-09T12:47:41.481Z,0.82
2022-09-09T12:50:20.928Z,0.70
2022-09-09T12:52:51.567Z,0.68
2022-09-09T12:55:26.225Z,0.45
2022-09-09T13:00:26.146Z,0.52
2022-09-09T13:02:57.078Z,0.57
2022-09-09T13:05:27.524Z,1.02
2022-09-09T13:08:04.012Z,0.75
2022-09-09T13:10:52.894Z,0.50
2022-09-09T13:13:27.553Z,0.90
2022-09-09T13:15:59.113Z,0.77
2022-09-09T13:18:32.488Z,0.60
2022-09-09T13:21:01.443Z,1.20
2022-09-09T13:23:33.286Z,1.10
2022-09-09T13:26:08.602Z,0.82
2022-09-09T13:28:37.084Z,0.73
2022-09-09T13:31:08.006Z,1.17
2022-09-09T13:33:38.530Z,1.23
2022-09-09T13:36:10.411Z,0.88
2022-09-09T13:38:42.806Z,1.05
2022-09-09T13:41:13.584Z,0.80
2022-09-09T13:43:48.229Z,1.23
2022-09-09T13:46:31.087Z,0.60
2022-09-09T13:49:00.409Z,0.80
2022-09-09T13:51:38.079Z,1.35
2022-09-09T13:54:08.172Z,0.57
2022-09-09T13:56:39.857Z,0.70
2022-09-09T13:59:13.097Z,0.70
2022-09-09T14:01:41.863Z,0.65
2022-09-09T14:04:11.475Z,0.75
2022-09-09T14:06:41.448Z,0.52
2022-09-09T14:09:13.964Z,0.50
2022-09-09T14:11:44.456Z,0.70
2022-09-09T14:14:12.661Z,0.68
2022-09-09T14:16:40.949Z,0.80
2022-09-09T14:19:10.446Z,0.85
2022-09-09T14:21:38.970Z,0.93
2022-09-09T14:24:08.233Z,0.90
2022-09-09T14:26:36.443Z,0.60
2022-09-09T14:29:06.011Z,0.70
2022-09-09T14:31:34.635Z,0.68
2022-09-09T14:34:03.172Z,0.60
2022-09-09T14:36:31.411Z,0.90
2022-09-09T14:39:00.011Z,0.73
2022-09-09T14:41:30.431Z,0.80
2022-09-09T14:43:59.571Z,1.25
2022-09-09T14:46:29.551Z,1.10
2022-09-09T14:48:57.763Z,0.75
2022-09-09T14:51:28.232Z,0.82
2022-09-09T14:53:59.181Z,0.80
2022-09-09T14:56:30.508Z,0.82
2022-09-09T14:59:01.677Z,0.73
2022-09-09T15:01:33.047Z,0.73
2022-09-09T15:04:03.872Z,1.17
2022-09-09T15:06:34.928Z,0.68
2022-09-09T15:09:04.040Z,0.50
2022-09-09T15:11:38.630Z,0.47
2022-09-09T15:14:07.934Z,0.50
2022-09-09T15:16:38.036Z,0.63
2022-09-09T15:19:06.412Z,0.45
2022-09-09T15:21:37.808Z,0.90
2022-09-09T15:24:08.203Z,1.20
2022-09-09T15:26:39.476Z,0.80
2022-09-09T15:29:08.982Z,0.88
2022-09-09T15:31:38.853Z,0.90
2022-09-09T15:34:09.612Z,0.85
2022-09-09T15:36:39.301Z,0.52
2022-09-09T15:39:10.591Z,1.30
2022-09-09T15:41:39.267Z,1.02
2022-09-09T15:44:08.135Z,0.73
2022-09-09T15:46:39.275Z,0.57
2022-09-09T15:49:11.460Z,0.40
2022-09-09T15:51:43.599Z,0.70
2022-09-09T15:54:14.203Z,0.45
2022-09-09T15:56:43.624Z,0.50
2022-09-09T15:59:12.202Z,0.30
2022-09-09T16:01:43.086Z,0.25
2022-09-09T16:04:12.215Z,0.30
2022-09-09T16:06:40.950Z,0.47
2022-09-09T16:09:10.959Z,0.32
2022-09-09T16:11:40.867Z,0.68
2022-09-09T16:14:09.630Z,0.40
2022-09-09T16:16:38.228Z,0.43
2022-09-09T16:19:10.546Z,0.50
2022-09-09T16:21:41.829Z,0.30
2022-09-09T16:24:12.810Z,0.55
2022-09-09T16:26:43.928Z,0.50
2022-09-09T16:29:12.555Z,0.50
2022-09-09T16:31:41.498Z,0.55
2022-09-09T16:34:11.999Z,0.40
2022-09-09T16:36:42.852Z,0.50
2022-09-09T16:39:14.194Z,0.47
2022-09-09T16:41:46.056Z,0.52
2022-09-09T16:44:17.996Z,0.38
2022-09-09T16:46:49.531Z,0.30
2022-09-09T16:49:19.237Z,0.57
2022-09-09T16:51:49.552Z,0.57
2022-09-09T16:54:19.294Z,0.52
2022-09-09T16:56:50.003Z,0.20
2022-09-09T16:59:22.898Z,0.50
2022-09-09T17:01:53.376Z,0.52
2022-09-09T17:04:27.225Z,0.30
2022-09-09T17:06:56.837Z,0.60
2022-09-09T17:09:29.728Z,0.38
2022-09-09T17:11:58.161Z,0.60
2022-09-09T17:14:26.648Z,0.52
2022-09-09T17:16:54.878Z,0.65
2022-09-09T17:19:24.445Z,0.63
2022-09-09T17:24:41.368Z,0.40
2022-09-09T17:27:10.023Z,0.75
2022-09-09T17:29:38.486Z,0.80
2022-09-09T17:32:08.087Z,0.50
2022-09-09T17:34:38.863Z,0.80
2022-09-09T17:37:07.892Z,0.43
2022-09-09T17:39:36.547Z,0.85
2022-09-09T17:42:05.202Z,0.57
2022-09-09T17:44:34.236Z,0.32
2022-09-09T17:47:04.884Z,0.65
2022-09-09T17:49:33.042Z,0.40
2022-09-09T17:52:02.857Z,0.70
2022-09-09T17:54:31.053Z,1.00
2022-09-09T17:57:00.588Z,2.10
2022-09-09T17:59:29.130Z,1.95
2022-09-09T18:01:57.952Z,1.35
2022-09-09T18:04:26.756Z,1.20
2022-09-09T18:06:55.580Z,1.83
2022-09-09T18:09:27.480Z,1.45
2022-09-09T18:12:00.193Z,0.68
2022-09-09T18:14:32.045Z,1.13
2022-09-09T18:17:01.476Z,0.40
2022-09-09T18:19:32.815Z,0.40
2022-09-09T18:22:02.771Z,0.68
2022-09-09T18:24:33.348Z,0.82
2022-09-09T18:27:01.975Z,0.50
2022-09-09T18:29:31.065Z,0.40
2022-09-09T18:31:59.606Z,0.95
2022-09-09T18:34:30.097Z,0.80
2022-09-09T18:36:58.722Z,0.60
2022-09-09T18:39:29.708Z,0.85
2022-09-09T18:42:01.727Z,1.20
2022-09-09T18:44:33.239Z,0.65
2022-09-09T18:47:03.406Z,0.75
2022-09-09T18:49:33.121Z,0.73
2022-09-09T18:52:02.715Z,0.40
2022-09-09T18:54:33.382Z,1.05
2022-09-09T18:57:03.487Z,1.00
2022-09-09T18:59:32.568Z,0.55
2022-09-09T19:02:00.785Z,0.63
2022-09-09T19:04:29.643Z,1.10
2022-09-09T19:06:58.665Z,0.52
2022-09-09T19:09:29.519Z,0.93
2022-09-09T19:11:58.183Z,0.65
2022-09-09T19:14:28.155Z,0.75
2022-09-09T19:16:56.476Z,0.70
2022-09-09T19:19:27.860Z,0.50
2022-09-09T19:21:57.490Z,0.50
2022-09-09T19:24:28.340Z,0.50
2022-09-09T19:27:01.610Z,0.50
2022-09-09T19:29:34.452Z,0.70
2022-09-09T19:32:49.660Z,0.60
2022-09-09T19:34:52.241Z,0.70
2022-09-09T19:37:20.981Z,0.85
2022-09-09T19:39:50.578Z,1.10
2022-09-09T19:42:18.994Z,1.13
2022-09-09T19:44:50.073Z,0.80
2022-09-09T19:47:19.692Z,1.10
2022-09-09T19:49:48.234Z,1.15
2022-09-09T19:52:17.432Z,0.90
2022-09-09T19:54:46.623Z,1.08
2022-09-09T19:57:16.058Z,0.60
2022-09-09T19:59:44.817Z,0.77
2022-09-09T20:02:16.274Z,1.00
2022-09-09T20:04:45.123Z,1.02
2022-09-09T20:07:14.746Z,1.00
2022-09-09T20:09:43.380Z,0.77
2022-09-09T20:12:12.152Z,1.73
2022-09-09T20:14:40.715Z,0.85
2022-09-09T20:17:09.963Z,0.90
2022-09-09T20:19:40.504Z,0.90
2022-09-09T20:22:09.128Z,0.73
2022-09-09T20:24:37.978Z,1.02
2022-09-09T20:27:08.039Z,0.98
2022-09-09T20:29:37.101Z,1.20
2022-09-09T20:32:06.719Z,1.13
2022-09-09T20:34:35.257Z,0.98
2022-09-09T20:37:05.838Z,1.25
2022-09-09T20:39:35.552Z,1.10
2022-09-09T20:42:04.279Z,1.05
2022-09-09T20:44:33.099Z,1.90
2022-09-09T20:47:06.373Z,1.50
2022-09-09T20:49:36.049Z,1.88
2022-09-09T20:52:06.836Z,2.00
2022-09-09T20:54:35.865Z,2.05
2022-09-09T20:57:04.130Z,2.20
2022-09-09T20:59:32.460Z,1.75
2022-09-09T21:02:01.546Z,1.77
2022-09-09T21:04:31.172Z,1.33
2022-09-09T21:06:59.435Z,2.50
2022-09-09T21:09:29.007Z,2.25
2022-09-09T21:11:57.220Z,1.70
2022-09-09T21:14:25.591Z,2.13
2022-09-09T21:16:54.395Z,2.13
2022-09-09T21:19:22.895Z,2.13
2022-09-09T21:21:51.264Z,2.00
2022-09-09T21:24:19.687Z,2.10
2022-09-09T21:26:49.385Z,2.08
2022-09-09T21:29:17.576Z,2.08
2022-09-09T21:31:46.403Z,2.92
2022-09-09T21:34:15.557Z,2.10
2022-09-09T21:36:44.107Z,2.60
2022-09-09T21:39:12.398Z,2.50
2022-09-09T21:41:41.000Z,2.08
2022-09-09T21:44:14.353Z,2.20
2022-09-09T21:46:43.812Z,2.10
2022-09-09T21:49:12.155Z,1.85
2022-09-09T21:51:40.771Z,2.78
2022-09-09T21:54:09.363Z,1.38
2022-09-09T21:56:38.005Z,2.03
2022-09-09T21:59:06.248Z,1.45
2022-09-09T22:01:35.969Z,1.48
2022-09-09T22:04:04.607Z,1.63
2022-09-09T22:06:33.793Z,2.22
2022-09-09T22:09:03.405Z,2.10
2022-09-09T22:11:32.092Z,2.13
2022-09-09T22:14:00.350Z,2.05
2022-09-09T22:16:28.568Z,1.95
2022-09-09T22:19:01.257Z,1.73
2022-09-09T22:21:33.201Z,1.80
2022-09-09T22:24:04.204Z,2.10
2022-09-09T22:26:36.052Z,2.30
2022-09-09T22:29:05.600Z,2.28
2022-09-09T22:31:36.082Z,1.58
2022-09-09T22:34:06.189Z,2.28
2022-09-09T22:36:34.464Z,2.08
2022-09-09T22:39:02.720Z,2.30
2022-09-09T22:41:31.994Z,2.10
2022-09-09T22:44:00.236Z,2.00
2022-09-09T22:46:28.500Z,1.90
2022-09-09T22:48:57.042Z,1.83
2022-09-09T22:51:28.867Z,2.30
2022-09-09T22:53:57.764Z,2.03
2022-09-09T22:56:26.332Z,2.20
2022-09-09T22:58:56.789Z,2.10
2022-09-09T23:01:27.539Z,3.03
2022-09-09T23:03:59.514Z,2.10
2022-09-09T23:06:31.700Z,1.67
2022-09-09T23:09:02.549Z,1.67
2022-09-09T23:11:34.884Z,1.67
2022-09-09T23:14:06.448Z,2.00
2022-09-09T23:16:39.855Z,2.08
2022-09-09T23:19:10.852Z,1.48
2022-09-09T23:21:42.092Z,2.05
2022-09-09T23:24:12.896Z,1.60
2022-09-09T23:26:41.657Z,1.98
2022-09-09T23:29:14.060Z,1.95
2022-09-09T23:31:45.041Z,2.03
2022-09-09T23:34:13.852Z,2.13
2022-09-09T23:36:43.412Z,1.90
2022-09-09T23:39:14.129Z,1.88
2022-09-09T23:41:42.677Z,1.98
2022-09-09T23:44:12.749Z,2.50
2022-09-09T23:46:41.637Z,1.67
2022-09-09T23:49:10.563Z,1.83
2022-09-09T23:51:39.396Z,1.80
2022-09-09T23:54:09.927Z,2.00
2022-09-09T23:56:42.270Z,2.42
2022-09-09T23:59:10.649Z,1.95
